PVV230 LPMA-GVAC
Flight info
| Callsign | PVV230 |
|---|---|
| Flight time | 2h 37m |
| Altitude | 31000 |
| Route | GOSGA UQ143 ORTIS N728 LOMAS N873 IPERA UW43 NEMDO DCT GUSOB GUSOB1F |
| Aircraft | B742/H-SDFHIRWXY/L |
Departure
| Time | 2026-04-21 20:06 |
|---|---|
| Airport | Cristiano Ronaldo International Airport (LPMA) |
Arrival
| Time | 2026-04-21 22:43 |
|---|---|
| Airport | Amílcar Cabral International Airport (GVAC) |
| Time | Latitude | Longitude | Altitude | Speed | Heading |
|---|---|---|---|---|---|
| 2026-04-21 19:49 | 32.69545 | -16.77398 | 188 ft | 0 kts | 137° |
| 2026-04-21 19:57 | 32.69546 | -16.77400 | 187 ft | 1 kts | 137° |
| 2026-04-21 19:57 | 32.69558 | -16.77412 | 186 ft | 2 kts | 137° |
| 2026-04-21 19:58 | 32.69569 | -16.77424 | 186 ft | 2 kts | 137° |
| 2026-04-21 19:58 | 32.69581 | -16.77434 | 186 ft | 2 kts | 152° |
| 2026-04-21 19:58 | 32.69595 | -16.77440 | 186 ft | 2 kts | 171° |
| 2026-04-21 19:58 | 32.69610 | -16.77440 | 187 ft | 2 kts | 188° |
| 2026-04-21 19:59 | 32.69624 | -16.77435 | 187 ft | 2 kts | 206° |
| 2026-04-21 19:59 | 32.69636 | -16.77426 | 188 ft | 1 kts | 223° |
| 2026-04-21 19:59 | 32.69640 | -16.77421 | 188 ft | 0 kts | 227° |
| 2026-04-21 20:01 | 32.69638 | -16.77424 | 188 ft | 1 kts | 227° |
| 2026-04-21 20:01 | 32.69617 | -16.77449 | 186 ft | 7 kts | 226° |
| 2026-04-21 20:01 | 32.69566 | -16.77513 | 183 ft | 13 kts | 224° |
| 2026-04-21 20:02 | 32.69519 | -16.77568 | 182 ft | 15 kts | 226° |
| 2026-04-21 20:02 | 32.69412 | -16.77710 | 182 ft | 18 kts | 229° |
| 2026-04-21 20:02 | 32.69332 | -16.77803 | 182 ft | 9 kts | 224° |
| 2026-04-21 20:02 | 32.69292 | -16.77856 | 180 ft | 6 kts | 254° |
| 2026-04-21 20:03 | 32.69288 | -16.77913 | 177 ft | 9 kts | 271° |
| 2026-04-21 20:03 | 32.69280 | -16.78031 | 169 ft | 16 kts | 244° |
| 2026-04-21 20:03 | 32.69192 | -16.78143 | 163 ft | 20 kts | 224° |
| 2026-04-21 20:03 | 32.69082 | -16.78272 | 159 ft | 23 kts | 225° |
| 2026-04-21 20:04 | 32.68961 | -16.78395 | 158 ft | 21 kts | 201° |
| 2026-04-21 20:04 | 32.68888 | -16.78429 | 158 ft | 6 kts | 240° |
| 2026-04-21 20:04 | 32.68901 | -16.78463 | 158 ft | 4 kts | 346° |
| 2026-04-21 20:04 | 32.68925 | -16.78456 | 158 ft | 0 kts | 37° |
| 2026-04-21 20:05 | 32.68926 | -16.78455 | 158 ft | 0 kts | 38° |
| 2026-04-21 20:05 | 32.68937 | -16.78442 | 158 ft | 4 kts | 46° |
| 2026-04-21 20:05 | 32.68970 | -16.78401 | 158 ft | 9 kts | 45° |
| 2026-04-21 20:05 | 32.69045 | -16.78315 | 158 ft | 28 kts | 43° |
| 2026-04-21 20:06 | 32.69345 | -16.77964 | 173 ft | 90 kts | 44° |
| 2026-04-21 20:06 | 32.69931 | -16.77279 | 202 ft | 144 kts | 44° |
| 2026-04-21 20:06 | 32.70746 | -16.76312 | 295 ft | 179 kts | 44° |
| 2026-04-21 20:06 | 32.71573 | -16.75252 | 900 ft | 174 kts | 45° |
| 2026-04-21 20:07 | 32.72360 | -16.74136 | 1401 ft | 181 kts | 61° |
| 2026-04-21 20:07 | 32.72543 | -16.72608 | 1558 ft | 203 kts | 103° |
| 2026-04-21 20:07 | 32.72147 | -16.71599 | 1832 ft | 204 kts | 130° |
| 2026-04-21 20:07 | 32.70484 | -16.70639 | 2229 ft | 209 kts | 184° |
| 2026-04-21 20:08 | 32.69070 | -16.70925 | 2675 ft | 205 kts | 195° |
| 2026-04-21 20:08 | 32.67659 | -16.71242 | 3080 ft | 210 kts | 188° |
| 2026-04-21 20:08 | 32.66186 | -16.71316 | 3530 ft | 212 kts | 177° |
| 2026-04-21 20:08 | 32.64729 | -16.71018 | 3974 ft | 215 kts | 163° |
| 2026-04-21 20:09 | 32.63297 | -16.70464 | 4373 ft | 219 kts | 163° |
| 2026-04-21 20:09 | 32.61811 | -16.69920 | 4701 ft | 228 kts | 164° |
| 2026-04-21 20:09 | 32.60247 | -16.69384 | 5070 ft | 236 kts | 165° |
| 2026-04-21 20:09 | 32.58649 | -16.68851 | 5455 ft | 244 kts | 165° |
| 2026-04-21 20:10 | 32.56962 | -16.68505 | 5818 ft | 251 kts | 175° |
| 2026-04-21 20:10 | 32.55190 | -16.68315 | 6183 ft | 260 kts | 176° |
| 2026-04-21 20:10 | 32.53341 | -16.68119 | 6543 ft | 270 kts | 176° |
| 2026-04-21 20:10 | 32.51469 | -16.67914 | 6953 ft | 270 kts | 176° |
| 2026-04-21 20:11 | 32.49569 | -16.67703 | 7345 ft | 280 kts | 176° |
| 2026-04-21 20:11 | 32.47590 | -16.67483 | 7743 ft | 291 kts | 176° |
| 2026-04-21 20:11 | 32.45520 | -16.67252 | 8209 ft | 300 kts | 176° |
| 2026-04-21 20:11 | 32.43430 | -16.67017 | 8711 ft | 307 kts | 177° |
| 2026-04-21 20:12 | 32.41284 | -16.66777 | 9206 ft | 314 kts | 177° |
| 2026-04-21 20:12 | 32.39050 | -16.66529 | 9632 ft | 325 kts | 177° |
| 2026-04-21 20:12 | 32.37549 | -16.66363 | 9902 ft | 333 kts | 177° |
| 2026-04-21 20:12 | 32.34393 | -16.66010 | 10452 ft | 348 kts | 177° |
| 2026-04-21 20:13 | 32.31947 | -16.65737 | 10834 ft | 360 kts | 177° |
| 2026-04-21 20:13 | 32.29386 | -16.65453 | 11208 ft | 372 kts | 177° |
| 2026-04-21 20:13 | 32.26786 | -16.65163 | 11614 ft | 382 kts | 177° |
| 2026-04-21 20:13 | 32.24111 | -16.64864 | 12012 ft | 392 kts | 177° |
| 2026-04-21 20:14 | 32.21330 | -16.64555 | 12394 ft | 403 kts | 177° |
| 2026-04-21 20:14 | 32.18518 | -16.64242 | 12849 ft | 410 kts | 177° |
| 2026-04-21 20:14 | 32.15642 | -16.63921 | 13309 ft | 417 kts | 177° |
| 2026-04-21 20:14 | 32.12746 | -16.63599 | 13770 ft | 423 kts | 177° |
| 2026-04-21 20:15 | 32.09808 | -16.63271 | 14322 ft | 427 kts | 177° |
| 2026-04-21 20:15 | 32.06819 | -16.62937 | 14891 ft | 429 kts | 178° |
| 2026-04-21 20:15 | 32.03849 | -16.62607 | 15472 ft | 431 kts | 178° |
| 2026-04-21 20:15 | 32.00857 | -16.62274 | 16062 ft | 432 kts | 178° |
| 2026-04-21 20:16 | 31.97879 | -16.61944 | 16651 ft | 433 kts | 178° |
| 2026-04-21 20:16 | 31.94850 | -16.61609 | 17248 ft | 433 kts | 178° |
| 2026-04-21 20:16 | 31.91870 | -16.61279 | 17834 ft | 433 kts | 178° |
| 2026-04-21 20:16 | 31.88884 | -16.60949 | 18433 ft | 433 kts | 179° |
| 2026-04-21 20:17 | 31.85858 | -16.60616 | 18977 ft | 434 kts | 179° |
| 2026-04-21 20:17 | 31.82853 | -16.60287 | 19435 ft | 437 kts | 178° |
| 2026-04-21 20:17 | 31.79828 | -16.59955 | 19894 ft | 439 kts | 178° |
| 2026-04-21 20:17 | 31.76789 | -16.59621 | 20352 ft | 441 kts | 178° |
| 2026-04-21 20:18 | 31.74744 | -16.59396 | 20659 ft | 443 kts | 178° |
| 2026-04-21 20:18 | 31.70633 | -16.58943 | 21276 ft | 446 kts | 178° |
| 2026-04-21 20:18 | 31.67545 | -16.58604 | 21738 ft | 448 kts | 178° |
| 2026-04-21 20:18 | 31.64404 | -16.58258 | 22207 ft | 449 kts | 178° |
| 2026-04-21 20:19 | 31.61292 | -16.57916 | 22671 ft | 451 kts | 178° |
| 2026-04-21 20:19 | 31.58191 | -16.57576 | 23133 ft | 452 kts | 178° |
| 2026-04-21 20:19 | 31.55026 | -16.57228 | 23608 ft | 453 kts | 178° |
| 2026-04-21 20:19 | 31.51893 | -16.56884 | 24078 ft | 454 kts | 178° |
| 2026-04-21 20:20 | 31.48741 | -16.56539 | 24431 ft | 457 kts | 178° |
| 2026-04-21 20:20 | 31.45574 | -16.56193 | 24784 ft | 460 kts | 178° |
| 2026-04-21 20:20 | 31.42359 | -16.55842 | 25143 ft | 463 kts | 178° |
| 2026-04-21 20:20 | 31.39164 | -16.55497 | 25497 ft | 465 kts | 178° |
| 2026-04-21 20:21 | 31.35906 | -16.55157 | 25858 ft | 467 kts | 178° |
| 2026-04-21 20:21 | 31.32679 | -16.54825 | 26215 ft | 468 kts | 178° |
| 2026-04-21 20:21 | 31.29442 | -16.54493 | 26571 ft | 470 kts | 178° |
| 2026-04-21 20:21 | 31.26156 | -16.54156 | 26931 ft | 471 kts | 178° |
| 2026-04-21 20:22 | 31.22910 | -16.53822 | 27288 ft | 471 kts | 178° |
| 2026-04-21 20:22 | 31.16369 | -16.53149 | 27905 ft | 475 kts | 178° |
| 2026-04-21 20:22 | 31.13069 | -16.52810 | 28173 ft | 477 kts | 178° |
| 2026-04-21 20:23 | 31.09750 | -16.52469 | 28440 ft | 479 kts | 178° |
| 2026-04-21 20:23 | 31.06420 | -16.52127 | 28710 ft | 480 kts | 178° |
| 2026-04-21 20:23 | 31.03064 | -16.51783 | 28980 ft | 482 kts | 178° |
| 2026-04-21 20:23 | 30.99707 | -16.51438 | 29249 ft | 483 kts | 178° |
| 2026-04-21 20:24 | 30.96348 | -16.51093 | 29515 ft | 485 kts | 178° |
| 2026-04-21 20:24 | 30.92922 | -16.50742 | 29788 ft | 486 kts | 178° |
| 2026-04-21 20:24 | 30.89511 | -16.50393 | 30059 ft | 487 kts | 178° |
| 2026-04-21 20:24 | 30.86046 | -16.50038 | 30333 ft | 487 kts | 178° |
| 2026-04-21 20:25 | 30.82647 | -16.49690 | 30604 ft | 488 kts | 178° |
| 2026-04-21 20:25 | 30.79212 | -16.49339 | 30864 ft | 489 kts | 178° |
| 2026-04-21 20:25 | 30.75800 | -16.48992 | 30972 ft | 491 kts | 178° |
| 2026-04-21 20:25 | 30.72376 | -16.48644 | 30991 ft | 495 kts | 178° |
| 2026-04-21 20:26 | 30.65480 | -16.47943 | 30996 ft | 502 kts | 178° |
| 2026-04-21 20:26 | 30.58459 | -16.47230 | 30992 ft | 509 kts | 178° |
| 2026-04-21 20:27 | 30.51337 | -16.46506 | 30994 ft | 515 kts | 178° |
| 2026-04-21 20:27 | 30.44195 | -16.45781 | 30995 ft | 521 kts | 178° |
| 2026-04-21 20:28 | 30.36916 | -16.45043 | 30997 ft | 525 kts | 178° |
| 2026-04-21 20:28 | 30.29631 | -16.44307 | 30994 ft | 528 kts | 178° |
| 2026-04-21 20:29 | 30.22302 | -16.43567 | 30992 ft | 529 kts | 178° |
| 2026-04-21 20:29 | 30.14947 | -16.42826 | 30994 ft | 530 kts | 178° |
| 2026-04-21 20:30 | 30.07585 | -16.42085 | 30998 ft | 530 kts | 178° |
| 2026-04-21 20:30 | 30.00256 | -16.41350 | 30992 ft | 531 kts | 178° |
| 2026-04-21 20:31 | 29.92884 | -16.40611 | 30994 ft | 531 kts | 178° |
| 2026-04-21 20:31 | 29.85496 | -16.39871 | 30994 ft | 530 kts | 178° |
| 2026-04-21 20:32 | 29.78173 | -16.39140 | 30993 ft | 530 kts | 178° |
| 2026-04-21 20:32 | 29.70815 | -16.38406 | 30995 ft | 531 kts | 178° |
| 2026-04-21 20:33 | 29.63440 | -16.37671 | 30995 ft | 531 kts | 178° |
| 2026-04-21 20:33 | 29.56070 | -16.36937 | 30994 ft | 531 kts | 178° |
| 2026-04-21 20:34 | 29.48690 | -16.36201 | 30991 ft | 531 kts | 178° |
| 2026-04-21 20:34 | 29.41338 | -16.35469 | 30993 ft | 531 kts | 177° |
| 2026-04-21 20:35 | 29.33947 | -16.34741 | 30991 ft | 531 kts | 178° |
| 2026-04-21 20:35 | 29.26564 | -16.34058 | 30995 ft | 531 kts | 178° |
| 2026-04-21 20:36 | 29.19191 | -16.33351 | 30992 ft | 531 kts | 178° |
| 2026-04-21 20:36 | 29.11869 | -16.32631 | 30996 ft | 531 kts | 178° |
| 2026-04-21 20:37 | 29.04491 | -16.31901 | 30994 ft | 531 kts | 178° |
| 2026-04-21 20:37 | 28.97110 | -16.31172 | 30991 ft | 531 kts | 178° |
| 2026-04-21 20:38 | 28.89743 | -16.30445 | 30989 ft | 531 kts | 178° |
| 2026-04-21 20:38 | 28.83041 | -16.29785 | 30988 ft | 531 kts | 178° |
| 2026-04-21 20:39 | 28.75662 | -16.29060 | 30991 ft | 531 kts | 178° |
| 2026-04-21 20:39 | 28.68314 | -16.28339 | 30989 ft | 531 kts | 178° |
| 2026-04-21 20:40 | 28.60922 | -16.27614 | 30988 ft | 532 kts | 178° |
| 2026-04-21 20:40 | 28.53606 | -16.26261 | 30990 ft | 536 kts | 163° |
| 2026-04-21 20:41 | 28.46928 | -16.22437 | 30997 ft | 540 kts | 150° |
| 2026-04-21 20:41 | 28.40591 | -16.17770 | 30990 ft | 543 kts | 148° |
| 2026-04-21 20:42 | 28.34276 | -16.13122 | 30990 ft | 543 kts | 149° |
| 2026-04-21 20:42 | 28.27863 | -16.08522 | 30990 ft | 544 kts | 149° |
| 2026-04-21 20:43 | 28.21455 | -16.03974 | 30988 ft | 544 kts | 149° |
| 2026-04-21 20:43 | 28.15040 | -15.99430 | 30987 ft | 545 kts | 149° |
| 2026-04-21 20:44 | 28.08599 | -15.94871 | 30987 ft | 545 kts | 149° |
| 2026-04-21 20:44 | 28.02183 | -15.90334 | 30987 ft | 545 kts | 149° |
| 2026-04-21 20:45 | 27.95722 | -15.85772 | 30989 ft | 546 kts | 149° |
| 2026-04-21 20:45 | 27.89287 | -15.81235 | 30988 ft | 547 kts | 149° |
| 2026-04-21 20:46 | 27.82855 | -15.76708 | 30986 ft | 547 kts | 150° |
| 2026-04-21 20:46 | 27.79466 | -15.74781 | 30983 ft | 543 kts | 161° |
| 2026-04-21 20:46 | 27.75843 | -15.73617 | 30979 ft | 538 kts | 173° |
| 2026-04-21 20:47 | 27.72122 | -15.73253 | 30976 ft | 533 kts | 184° |
| 2026-04-21 20:47 | 27.68490 | -15.73686 | 30982 ft | 527 kts | 195° |
| 2026-04-21 20:47 | 27.64996 | -15.74890 | 30982 ft | 521 kts | 206° |
| 2026-04-21 20:47 | 27.61724 | -15.76660 | 30980 ft | 518 kts | 212° |
| 2026-04-21 20:48 | 27.55610 | -15.80903 | 30980 ft | 517 kts | 217° |
| 2026-04-21 20:48 | 27.49625 | -15.85366 | 30975 ft | 517 kts | 217° |
| 2026-04-21 20:49 | 27.43605 | -15.89809 | 30974 ft | 516 kts | 217° |
| 2026-04-21 20:49 | 27.37602 | -15.94188 | 30971 ft | 516 kts | 217° |
| 2026-04-21 20:50 | 27.31557 | -15.98580 | 30970 ft | 516 kts | 217° |
| 2026-04-21 20:50 | 27.25541 | -16.02944 | 30970 ft | 515 kts | 217° |
| 2026-04-21 20:51 | 27.19509 | -16.07315 | 30973 ft | 515 kts | 217° |
| 2026-04-21 20:51 | 27.13494 | -16.11668 | 30965 ft | 515 kts | 217° |
| 2026-04-21 20:52 | 27.07470 | -16.16022 | 30963 ft | 515 kts | 217° |
| 2026-04-21 20:52 | 27.01452 | -16.20366 | 30964 ft | 515 kts | 217° |
| 2026-04-21 20:53 | 26.95436 | -16.24703 | 30967 ft | 514 kts | 217° |
| 2026-04-21 20:53 | 26.89406 | -16.29044 | 30962 ft | 514 kts | 217° |
| 2026-04-21 20:54 | 26.83399 | -16.33359 | 30959 ft | 513 kts | 217° |
| 2026-04-21 20:54 | 26.77386 | -16.37667 | 30966 ft | 511 kts | 217° |
| 2026-04-21 20:55 | 26.71390 | -16.41959 | 30963 ft | 512 kts | 217° |
| 2026-04-21 20:55 | 26.65426 | -16.46222 | 30987 ft | 510 kts | 217° |
| 2026-04-21 20:56 | 26.59444 | -16.50492 | 30983 ft | 510 kts | 218° |
| 2026-04-21 20:56 | 26.53471 | -16.54752 | 30980 ft | 509 kts | 218° |
| 2026-04-21 20:57 | 26.47527 | -16.58985 | 30979 ft | 509 kts | 218° |
| 2026-04-21 20:57 | 26.41533 | -16.63247 | 30981 ft | 507 kts | 218° |
| 2026-04-21 20:58 | 26.35611 | -16.67437 | 30981 ft | 508 kts | 218° |
| 2026-04-21 20:58 | 26.29644 | -16.71624 | 30986 ft | 508 kts | 218° |
| 2026-04-21 20:59 | 26.23648 | -16.75854 | 30980 ft | 507 kts | 218° |
| 2026-04-21 20:59 | 26.17697 | -16.80065 | 30981 ft | 507 kts | 218° |
| 2026-04-21 21:00 | 26.11796 | -16.84248 | 30980 ft | 505 kts | 218° |
| 2026-04-21 21:00 | 26.05866 | -16.88449 | 30976 ft | 505 kts | 219° |
| 2026-04-21 21:01 | 25.99939 | -16.92642 | 30985 ft | 505 kts | 219° |
| 2026-04-21 21:01 | 25.94009 | -16.96832 | 30981 ft | 504 kts | 219° |
| 2026-04-21 21:02 | 25.88095 | -17.01004 | 30982 ft | 503 kts | 219° |
| 2026-04-21 21:02 | 25.82188 | -17.05168 | 30980 ft | 501 kts | 219° |
| 2026-04-21 21:03 | 25.76277 | -17.09329 | 30984 ft | 499 kts | 219° |
| 2026-04-21 21:03 | 25.70433 | -17.13439 | 30982 ft | 498 kts | 219° |
| 2026-04-21 21:04 | 25.64567 | -17.17555 | 31229 ft | 492 kts | 219° |
| 2026-04-21 21:04 | 25.61702 | -17.19561 | 31495 ft | 489 kts | 220° |
| 2026-04-21 21:04 | 25.58825 | -17.21578 | 31769 ft | 486 kts | 220° |
| 2026-04-21 21:05 | 25.55975 | -17.23574 | 32042 ft | 483 kts | 221° |
| 2026-04-21 21:05 | 25.53138 | -17.25561 | 32313 ft | 481 kts | 221° |
| 2026-04-21 21:05 | 25.50310 | -17.27540 | 32583 ft | 479 kts | 222° |
| 2026-04-21 21:05 | 25.47500 | -17.29506 | 32842 ft | 476 kts | 222° |
| 2026-04-21 21:06 | 25.44693 | -17.31471 | 32952 ft | 477 kts | 222° |
| 2026-04-21 21:06 | 25.41880 | -17.33438 | 32971 ft | 477 kts | 223° |
| 2026-04-21 21:06 | 25.36275 | -17.37355 | 32972 ft | 477 kts | 223° |
| 2026-04-21 21:07 | 25.30702 | -17.41240 | 32976 ft | 475 kts | 223° |
| 2026-04-21 21:07 | 25.25096 | -17.45146 | 32978 ft | 476 kts | 223° |
| 2026-04-21 21:08 | 25.19492 | -17.49047 | 32974 ft | 475 kts | 223° |
| 2026-04-21 21:08 | 25.13873 | -17.52952 | 32986 ft | 476 kts | 223° |
| 2026-04-21 21:09 | 25.08288 | -17.56827 | 32971 ft | 474 kts | 224° |
| 2026-04-21 21:09 | 25.02707 | -17.60698 | 32986 ft | 472 kts | 224° |
| 2026-04-21 21:10 | 24.97148 | -17.64548 | 32979 ft | 471 kts | 223° |
| 2026-04-21 21:10 | 24.91586 | -17.68364 | 32986 ft | 473 kts | 223° |
| 2026-04-21 21:11 | 24.86007 | -17.72181 | 32984 ft | 472 kts | 223° |
| 2026-04-21 21:11 | 24.80448 | -17.76005 | 32979 ft | 472 kts | 223° |
| 2026-04-21 21:12 | 24.74882 | -17.79839 | 32978 ft | 472 kts | 223° |
| 2026-04-21 21:12 | 24.69301 | -17.83680 | 32981 ft | 471 kts | 223° |
| 2026-04-21 21:13 | 24.63735 | -17.87507 | 32986 ft | 472 kts | 223° |
| 2026-04-21 21:13 | 24.58169 | -17.91329 | 32984 ft | 472 kts | 223° |
| 2026-04-21 21:14 | 24.52591 | -17.95155 | 32982 ft | 471 kts | 223° |
| 2026-04-21 21:14 | 24.47067 | -17.98941 | 32987 ft | 470 kts | 224° |
| 2026-04-21 21:15 | 24.41496 | -18.02755 | 32980 ft | 470 kts | 223° |
| 2026-04-21 21:15 | 24.35932 | -18.06561 | 32984 ft | 470 kts | 223° |
| 2026-04-21 21:16 | 24.30405 | -18.10336 | 32985 ft | 469 kts | 223° |
| 2026-04-21 21:16 | 24.24967 | -18.14048 | 32984 ft | 470 kts | 223° |
| 2026-04-21 21:17 | 24.19403 | -18.17842 | 32982 ft | 470 kts | 223° |
| 2026-04-21 21:17 | 24.13850 | -18.21623 | 32984 ft | 469 kts | 223° |
| 2026-04-21 21:18 | 24.08329 | -18.25379 | 32983 ft | 468 kts | 223° |
| 2026-04-21 21:18 | 24.02779 | -18.29150 | 32985 ft | 468 kts | 223° |
| 2026-04-21 21:19 | 23.97281 | -18.32884 | 32983 ft | 467 kts | 223° |
| 2026-04-21 21:19 | 23.91744 | -18.36640 | 32984 ft | 467 kts | 223° |
| 2026-04-21 21:20 | 23.86196 | -18.40400 | 32984 ft | 467 kts | 223° |
| 2026-04-21 21:20 | 23.80694 | -18.44127 | 32980 ft | 468 kts | 223° |
| 2026-04-21 21:21 | 23.75131 | -18.47889 | 32981 ft | 468 kts | 223° |
| 2026-04-21 21:21 | 23.69627 | -18.51608 | 32982 ft | 468 kts | 223° |
| 2026-04-21 21:22 | 23.64080 | -18.55350 | 32980 ft | 468 kts | 223° |
| 2026-04-21 21:22 | 23.58513 | -18.59103 | 32982 ft | 468 kts | 223° |
| 2026-04-21 21:23 | 23.52925 | -18.62866 | 32979 ft | 469 kts | 223° |
| 2026-04-21 21:23 | 23.47373 | -18.66594 | 32977 ft | 470 kts | 222° |
| 2026-04-21 21:24 | 23.41759 | -18.70327 | 32972 ft | 472 kts | 222° |
| 2026-04-21 21:24 | 23.36166 | -18.74061 | 32970 ft | 473 kts | 222° |
| 2026-04-21 21:25 | 23.30564 | -18.77812 | 32966 ft | 472 kts | 222° |
| 2026-04-21 21:25 | 23.24971 | -18.81559 | 32959 ft | 472 kts | 222° |
| 2026-04-21 21:26 | 23.19382 | -18.85300 | 32964 ft | 472 kts | 222° |
| 2026-04-21 21:26 | 23.13771 | -18.89052 | 32964 ft | 473 kts | 222° |
| 2026-04-21 21:27 | 23.08166 | -18.92797 | 32967 ft | 472 kts | 222° |
| 2026-04-21 21:27 | 23.02591 | -18.96518 | 32965 ft | 473 kts | 222° |
| 2026-04-21 21:28 | 22.96991 | -19.00252 | 32966 ft | 472 kts | 222° |
| 2026-04-21 21:29 | 22.88560 | -19.05866 | 32965 ft | 473 kts | 222° |
| 2026-04-21 21:29 | 22.82944 | -19.09604 | 32968 ft | 473 kts | 222° |
| 2026-04-21 21:30 | 22.77335 | -19.13332 | 32969 ft | 473 kts | 221° |
| 2026-04-21 21:30 | 22.71738 | -19.17048 | 32967 ft | 474 kts | 221° |
| 2026-04-21 21:31 | 22.66093 | -19.20792 | 32969 ft | 474 kts | 221° |
| 2026-04-21 21:31 | 22.60436 | -19.24539 | 32970 ft | 475 kts | 222° |
| 2026-04-21 21:32 | 22.54831 | -19.28248 | 32969 ft | 475 kts | 221° |
| 2026-04-21 21:32 | 22.49193 | -19.31976 | 32969 ft | 475 kts | 221° |
| 2026-04-21 21:33 | 22.43517 | -19.35726 | 32969 ft | 476 kts | 221° |
| 2026-04-21 21:33 | 22.38231 | -19.39215 | 32969 ft | 476 kts | 221° |
| 2026-04-21 21:34 | 22.32557 | -19.42956 | 32969 ft | 477 kts | 221° |
| 2026-04-21 21:34 | 22.26882 | -19.46693 | 32970 ft | 477 kts | 221° |
| 2026-04-21 21:35 | 22.21228 | -19.50414 | 32968 ft | 478 kts | 221° |
| 2026-04-21 21:35 | 22.15559 | -19.54141 | 32967 ft | 477 kts | 221° |
| 2026-04-21 21:36 | 22.09847 | -19.57892 | 32967 ft | 477 kts | 221° |
| 2026-04-21 21:36 | 22.04180 | -19.61611 | 32967 ft | 478 kts | 221° |
| 2026-04-21 21:37 | 21.98490 | -19.65340 | 32967 ft | 478 kts | 221° |
| 2026-04-21 21:37 | 21.92764 | -19.69055 | 32957 ft | 480 kts | 220° |
| 2026-04-21 21:38 | 21.87056 | -19.72764 | 32961 ft | 480 kts | 220° |
| 2026-04-21 21:38 | 21.81339 | -19.76494 | 32963 ft | 479 kts | 220° |
| 2026-04-21 21:39 | 21.75633 | -19.80219 | 32963 ft | 479 kts | 220° |
| 2026-04-21 21:39 | 21.69943 | -19.83931 | 32967 ft | 479 kts | 220° |
| 2026-04-21 21:40 | 21.64265 | -19.87632 | 32960 ft | 478 kts | 220° |
| 2026-04-21 21:40 | 21.58545 | -19.91357 | 32961 ft | 478 kts | 220° |
| 2026-04-21 21:41 | 21.52875 | -19.95045 | 32964 ft | 479 kts | 220° |
| 2026-04-21 21:41 | 21.47149 | -19.98767 | 32962 ft | 478 kts | 220° |
| 2026-04-21 21:42 | 21.41453 | -20.02464 | 32960 ft | 478 kts | 220° |
| 2026-04-21 21:42 | 21.35783 | -20.06143 | 32967 ft | 478 kts | 220° |
| 2026-04-21 21:43 | 21.30074 | -20.09843 | 32961 ft | 478 kts | 220° |
| 2026-04-21 21:43 | 21.24385 | -20.13527 | 32965 ft | 478 kts | 220° |
| 2026-04-21 21:44 | 21.18690 | -20.17211 | 32968 ft | 478 kts | 220° |
| 2026-04-21 21:44 | 21.12991 | -20.20894 | 32966 ft | 477 kts | 220° |
| 2026-04-21 21:45 | 21.07300 | -20.24570 | 32968 ft | 477 kts | 220° |
| 2026-04-21 21:45 | 21.01610 | -20.28240 | 32969 ft | 478 kts | 220° |
| 2026-04-21 21:46 | 20.95911 | -20.31915 | 32970 ft | 478 kts | 220° |
| 2026-04-21 21:46 | 20.90193 | -20.35597 | 32973 ft | 478 kts | 220° |
| 2026-04-21 21:47 | 20.84533 | -20.39240 | 32972 ft | 478 kts | 220° |
| 2026-04-21 21:47 | 20.78816 | -20.42916 | 32973 ft | 476 kts | 220° |
| 2026-04-21 21:48 | 20.73149 | -20.46557 | 32969 ft | 477 kts | 220° |
| 2026-04-21 21:48 | 20.67433 | -20.50225 | 32973 ft | 477 kts | 220° |
| 2026-04-21 21:49 | 20.61767 | -20.53858 | 32976 ft | 478 kts | 220° |
| 2026-04-21 21:49 | 20.56067 | -20.57510 | 32974 ft | 477 kts | 219° |
| 2026-04-21 21:50 | 20.50337 | -20.61177 | 32980 ft | 478 kts | 219° |
| 2026-04-21 21:50 | 20.44643 | -20.64817 | 32976 ft | 477 kts | 219° |
| 2026-04-21 21:51 | 20.38925 | -20.68444 | 32982 ft | 479 kts | 219° |
| 2026-04-21 21:51 | 20.36257 | -20.70476 | 32979 ft | 465 kts | 230° |
| 2026-04-21 21:51 | 20.34006 | -20.72920 | 32982 ft | 459 kts | 235° |
| 2026-04-21 21:52 | 20.29936 | -20.78145 | 32982 ft | 458 kts | 237° |
| 2026-04-21 21:52 | 20.26040 | -20.83250 | 32983 ft | 459 kts | 237° |
| 2026-04-21 21:53 | 20.21966 | -20.88507 | 32983 ft | 460 kts | 237° |
| 2026-04-21 21:53 | 20.17900 | -20.93710 | 32984 ft | 460 kts | 237° |
| 2026-04-21 21:54 | 20.13781 | -20.98962 | 32984 ft | 460 kts | 237° |
| 2026-04-21 21:54 | 20.09672 | -21.04198 | 32985 ft | 460 kts | 236° |
| 2026-04-21 21:55 | 20.05594 | -21.09388 | 32986 ft | 461 kts | 236° |
| 2026-04-21 21:55 | 20.01490 | -21.14608 | 32987 ft | 460 kts | 236° |
| 2026-04-21 21:56 | 19.97378 | -21.19832 | 32985 ft | 460 kts | 236° |
| 2026-04-21 21:56 | 19.93265 | -21.25053 | 32985 ft | 459 kts | 236° |
| 2026-04-21 21:57 | 19.89777 | -21.29477 | 32984 ft | 459 kts | 236° |
| 2026-04-21 21:57 | 19.85681 | -21.34670 | 32984 ft | 458 kts | 236° |
| 2026-04-21 21:58 | 19.81589 | -21.39854 | 32990 ft | 458 kts | 236° |
| 2026-04-21 21:58 | 19.77484 | -21.45049 | 32987 ft | 458 kts | 236° |
| 2026-04-21 21:59 | 19.73375 | -21.50243 | 32982 ft | 458 kts | 236° |
| 2026-04-21 21:59 | 19.69285 | -21.55408 | 32983 ft | 457 kts | 236° |
| 2026-04-21 22:00 | 19.65216 | -21.60541 | 32981 ft | 457 kts | 236° |
| 2026-04-21 22:00 | 19.61122 | -21.65702 | 32985 ft | 457 kts | 236° |
| 2026-04-21 22:01 | 19.57003 | -21.70850 | 32981 ft | 458 kts | 235° |
| 2026-04-21 22:01 | 19.52876 | -21.76016 | 32983 ft | 459 kts | 235° |
| 2026-04-21 22:02 | 19.48757 | -21.81186 | 32984 ft | 460 kts | 235° |
| 2026-04-21 22:02 | 19.44644 | -21.86351 | 32984 ft | 459 kts | 235° |
| 2026-04-21 22:03 | 19.40529 | -21.91516 | 32985 ft | 459 kts | 235° |
| 2026-04-21 22:03 | 19.36406 | -21.96686 | 32985 ft | 459 kts | 235° |
| 2026-04-21 22:04 | 19.32278 | -22.01858 | 32985 ft | 458 kts | 235° |
| 2026-04-21 22:04 | 19.28166 | -22.07007 | 32986 ft | 458 kts | 235° |
| 2026-04-21 22:05 | 19.24067 | -22.12135 | 32984 ft | 458 kts | 235° |
| 2026-04-21 22:05 | 19.19949 | -22.17282 | 32978 ft | 459 kts | 235° |
| 2026-04-21 22:06 | 19.15839 | -22.22414 | 32975 ft | 458 kts | 234° |
| 2026-04-21 22:06 | 19.11706 | -22.27572 | 32972 ft | 458 kts | 234° |
| 2026-04-21 22:07 | 19.07601 | -22.32689 | 32972 ft | 458 kts | 234° |
| 2026-04-21 22:07 | 19.03462 | -22.37845 | 32972 ft | 459 kts | 234° |
| 2026-04-21 22:08 | 18.99356 | -22.42956 | 32973 ft | 459 kts | 234° |
| 2026-04-21 22:08 | 18.95219 | -22.48099 | 32976 ft | 459 kts | 234° |
| 2026-04-21 22:09 | 18.91085 | -22.53236 | 32976 ft | 459 kts | 234° |
| 2026-04-21 22:09 | 18.86952 | -22.58368 | 32976 ft | 460 kts | 234° |
| 2026-04-21 22:10 | 18.82808 | -22.63511 | 32976 ft | 460 kts | 234° |
| 2026-04-21 22:10 | 18.78649 | -22.68645 | 32978 ft | 460 kts | 233° |
| 2026-04-21 22:11 | 18.74487 | -22.73764 | 32978 ft | 461 kts | 233° |
| 2026-04-21 22:11 | 18.70323 | -22.78901 | 32977 ft | 461 kts | 233° |
| 2026-04-21 22:12 | 18.66138 | -22.84070 | 32977 ft | 462 kts | 233° |
| 2026-04-21 22:12 | 18.61977 | -22.89210 | 32975 ft | 462 kts | 233° |
| 2026-04-21 22:13 | 18.57798 | -22.94369 | 32975 ft | 462 kts | 233° |
| 2026-04-21 22:13 | 18.53624 | -22.99516 | 32976 ft | 462 kts | 233° |
| 2026-04-21 22:14 | 18.49459 | -23.04647 | 32977 ft | 462 kts | 233° |
| 2026-04-21 22:14 | 18.45271 | -23.09803 | 32976 ft | 462 kts | 233° |
| 2026-04-21 22:15 | 18.41111 | -23.14920 | 32973 ft | 462 kts | 233° |
| 2026-04-21 22:15 | 18.36941 | -23.20047 | 32969 ft | 462 kts | 233° |
| 2026-04-21 22:16 | 18.32739 | -23.25207 | 32966 ft | 463 kts | 233° |
| 2026-04-21 22:16 | 18.28556 | -23.30340 | 32966 ft | 462 kts | 233° |
| 2026-04-21 22:17 | 18.24398 | -23.35439 | 32966 ft | 463 kts | 233° |
| 2026-04-21 22:17 | 18.20189 | -23.40596 | 32966 ft | 462 kts | 233° |
| 2026-04-21 22:18 | 18.15927 | -23.45667 | 32960 ft | 465 kts | 227° |
| 2026-04-21 22:18 | 18.13329 | -23.47712 | 32963 ft | 473 kts | 215° |
| 2026-04-21 22:18 | 18.10317 | -23.49151 | 32965 ft | 483 kts | 204° |
| 2026-04-21 22:18 | 18.07008 | -23.49914 | 32966 ft | 495 kts | 193° |
| 2026-04-21 22:19 | 18.03532 | -23.49956 | 32967 ft | 507 kts | 181° |
| 2026-04-21 22:19 | 17.99980 | -23.49239 | 32967 ft | 520 kts | 170° |
| 2026-04-21 22:19 | 17.96592 | -23.47805 | 32977 ft | 531 kts | 160° |
| 2026-04-21 22:20 | 17.90090 | -23.44033 | 32976 ft | 535 kts | 158° |
| 2026-04-21 22:20 | 17.83482 | -23.40420 | 32976 ft | 533 kts | 161° |
| 2026-04-21 22:21 | 17.76821 | -23.37103 | 32974 ft | 532 kts | 162° |
| 2026-04-21 22:21 | 17.70076 | -23.33841 | 32973 ft | 532 kts | 162° |
| 2026-04-21 22:22 | 17.63360 | -23.30599 | 32974 ft | 532 kts | 162° |
| 2026-04-21 22:22 | 17.56620 | -23.27339 | 32981 ft | 532 kts | 162° |
| 2026-04-21 22:23 | 17.49847 | -23.24063 | 32986 ft | 532 kts | 161° |
| 2026-04-21 22:23 | 17.43088 | -23.20795 | 32986 ft | 532 kts | 161° |
| 2026-04-21 22:24 | 17.36327 | -23.17572 | 32986 ft | 529 kts | 164° |
| 2026-04-21 22:24 | 17.29328 | -23.14933 | 32986 ft | 525 kts | 168° |
| 2026-04-21 22:25 | 17.22383 | -23.12528 | 32986 ft | 525 kts | 168° |
| 2026-04-21 22:25 | 17.15358 | -23.10059 | 32355 ft | 536 kts | 167° |
| 2026-04-21 22:25 | 17.11868 | -23.08815 | 31461 ft | 523 kts | 167° |
| 2026-04-21 22:26 | 17.08442 | -23.07582 | 30428 ft | 513 kts | 167° |
| 2026-04-21 22:26 | 17.05134 | -23.06399 | 29268 ft | 506 kts | 168° |
| 2026-04-21 22:26 | 17.01755 | -23.05599 | 27928 ft | 494 kts | 180° |
| 2026-04-21 22:26 | 16.98357 | -23.05340 | 26545 ft | 488 kts | 185° |
| 2026-04-21 22:27 | 16.94950 | -23.05301 | 25155 ft | 485 kts | 186° |
| 2026-04-21 22:27 | 16.91634 | -23.05327 | 23800 ft | 483 kts | 186° |
| 2026-04-21 22:27 | 16.88253 | -23.05354 | 22476 ft | 481 kts | 185° |
| 2026-04-21 22:27 | 16.84928 | -23.05354 | 21264 ft | 478 kts | 184° |
| 2026-04-21 22:28 | 16.81635 | -23.05338 | 20057 ft | 474 kts | 184° |
| 2026-04-21 22:28 | 16.78380 | -23.05337 | 18826 ft | 469 kts | 184° |
| 2026-04-21 22:28 | 16.75161 | -23.05357 | 17582 ft | 463 kts | 184° |
| 2026-04-21 22:28 | 16.71943 | -23.05395 | 16295 ft | 457 kts | 184° |
| 2026-04-21 22:29 | 16.68806 | -23.05437 | 15024 ft | 451 kts | 184° |
| 2026-04-21 22:29 | 16.65708 | -23.05479 | 13727 ft | 445 kts | 184° |
| 2026-04-21 22:29 | 16.62662 | -23.05523 | 12431 ft | 438 kts | 184° |
| 2026-04-21 22:29 | 16.59661 | -23.05574 | 11299 ft | 427 kts | 184° |
| 2026-04-21 22:30 | 16.56753 | -23.05632 | 10399 ft | 412 kts | 184° |
| 2026-04-21 22:30 | 16.53906 | -23.05692 | 9488 ft | 399 kts | 184° |
| 2026-04-21 22:30 | 16.51206 | -23.05752 | 8591 ft | 388 kts | 184° |
| 2026-04-21 22:30 | 16.48510 | -23.05820 | 7667 ft | 379 kts | 184° |
| 2026-04-21 22:31 | 16.45920 | -23.05893 | 6750 ft | 370 kts | 184° |
| 2026-04-21 22:31 | 16.43386 | -23.05973 | 5831 ft | 363 kts | 184° |
| 2026-04-21 22:31 | 16.40898 | -23.06067 | 4909 ft | 357 kts | 184° |
| 2026-04-21 22:31 | 16.38453 | -23.06194 | 4148 ft | 346 kts | 184° |
| 2026-04-21 22:32 | 16.36085 | -23.06350 | 3460 ft | 335 kts | 184° |
| 2026-04-21 22:32 | 16.33793 | -23.06520 | 3070 ft | 316 kts | 180° |
| 2026-04-21 22:32 | 16.31694 | -23.06219 | 2696 ft | 296 kts | 158° |
| 2026-04-21 22:32 | 16.29964 | -23.05223 | 2323 ft | 277 kts | 132° |
| 2026-04-21 22:33 | 16.29012 | -23.03621 | 2096 ft | 252 kts | 99° |
| 2026-04-21 22:33 | 16.29076 | -23.01913 | 2002 ft | 227 kts | 65° |
| 2026-04-21 22:33 | 16.29997 | -23.00747 | 1982 ft | 196 kts | 29° |
| 2026-04-21 22:33 | 16.31134 | -23.00098 | 1984 ft | 179 kts | 31° |
| 2026-04-21 22:34 | 16.32189 | -22.99454 | 1982 ft | 173 kts | 31° |
| 2026-04-21 22:34 | 16.33229 | -22.98820 | 2002 ft | 172 kts | 31° |
| 2026-04-21 22:34 | 16.34264 | -22.98195 | 1990 ft | 171 kts | 30° |
| 2026-04-21 22:34 | 16.35318 | -22.97577 | 1988 ft | 172 kts | 30° |
| 2026-04-21 22:35 | 16.36364 | -22.96962 | 1986 ft | 172 kts | 30° |
| 2026-04-21 22:35 | 16.37414 | -22.96345 | 1988 ft | 174 kts | 30° |
| 2026-04-21 22:35 | 16.38476 | -22.95721 | 1765 ft | 179 kts | 30° |
| 2026-04-21 22:35 | 16.39604 | -22.95207 | 1533 ft | 170 kts | 7° |
| 2026-04-21 22:36 | 16.41966 | -22.95042 | 1493 ft | 172 kts | 12° |
| 2026-04-21 22:36 | 16.43137 | -22.94834 | 1487 ft | 170 kts | 11° |
| 2026-04-21 22:36 | 16.44332 | -22.94691 | 1486 ft | 173 kts | 6° |
| 2026-04-21 22:37 | 16.45538 | -22.94640 | 1487 ft | 174 kts | 3° |
| 2026-04-21 22:37 | 16.46755 | -22.94651 | 1485 ft | 174 kts | 1° |
| 2026-04-21 22:37 | 16.47982 | -22.94687 | 1486 ft | 175 kts | 1° |
| 2026-04-21 22:37 | 16.49205 | -22.94721 | 1485 ft | 174 kts | 2° |
| 2026-04-21 22:38 | 16.50412 | -22.94741 | 1484 ft | 174 kts | 2° |
| 2026-04-21 22:38 | 16.51625 | -22.94753 | 1484 ft | 173 kts | 2° |
| 2026-04-21 22:38 | 16.52838 | -22.94759 | 1486 ft | 174 kts | 2° |
| 2026-04-21 22:38 | 16.54053 | -22.94765 | 1486 ft | 174 kts | 2° |
| 2026-04-21 22:39 | 16.55271 | -22.94771 | 1485 ft | 174 kts | 2° |
| 2026-04-21 22:39 | 16.56489 | -22.94779 | 1484 ft | 174 kts | 2° |
| 2026-04-21 22:39 | 16.57723 | -22.94787 | 1485 ft | 174 kts | 2° |
| 2026-04-21 22:39 | 16.58926 | -22.94795 | 1483 ft | 174 kts | 2° |
| 2026-04-21 22:40 | 16.60166 | -22.94803 | 1484 ft | 175 kts | 2° |
| 2026-04-21 22:40 | 16.61386 | -22.94811 | 1484 ft | 175 kts | 2° |
| 2026-04-21 22:40 | 16.62603 | -22.94820 | 1479 ft | 170 kts | 2° |
| 2026-04-21 22:40 | 16.63730 | -22.94830 | 1481 ft | 156 kts | 3° |
| 2026-04-21 22:41 | 16.64805 | -22.94836 | 1485 ft | 151 kts | 3° |
| 2026-04-21 22:41 | 16.65861 | -22.94842 | 1449 ft | 153 kts | 3° |
| 2026-04-21 22:41 | 16.66929 | -22.94849 | 1253 ft | 152 kts | 3° |
| 2026-04-21 22:41 | 16.67984 | -22.94861 | 1025 ft | 151 kts | 2° |
| 2026-04-21 22:42 | 16.69043 | -22.94875 | 851 ft | 149 kts | 2° |
| 2026-04-21 22:42 | 16.70084 | -22.94895 | 700 ft | 150 kts | 4° |
| 2026-04-21 22:42 | 16.71138 | -22.94892 | 464 ft | 150 kts | 1° |
| 2026-04-21 22:42 | 16.72176 | -22.94909 | 265 ft | 149 kts | 3° |
| 2026-04-21 22:43 | 16.73196 | -22.94897 | 194 ft | 138 kts | 2° |
| 2026-04-21 22:43 | 16.74015 | -22.94898 | 191 ft | 95 kts | 359° |
| 2026-04-21 22:43 | 16.74534 | -22.94900 | 183 ft | 52 kts | 1° |
| 2026-04-21 22:43 | 16.74774 | -22.94900 | 179 ft | 26 kts | 0° |
| 2026-04-21 22:44 | 16.74953 | -22.94901 | 177 ft | 24 kts | 358° |
| 2026-04-21 22:44 | 16.75040 | -22.94894 | 179 ft | 5 kts | 45° |
| 2026-04-21 22:44 | 16.75053 | -22.94865 | 179 ft | 3 kts | 84° |
| 2026-04-21 22:44 | 16.75047 | -22.94836 | 178 ft | 4 kts | 117° |
| 2026-04-21 22:45 | 16.75027 | -22.94799 | 178 ft | 6 kts | 120° |
| 2026-04-21 22:45 | 16.74999 | -22.94751 | 179 ft | 8 kts | 121° |
| 2026-04-21 22:45 | 16.74962 | -22.94715 | 179 ft | 7 kts | 158° |
| 2026-04-21 22:45 | 16.74909 | -22.94703 | 180 ft | 8 kts | 176° |
| 2026-04-21 22:46 | 16.74839 | -22.94703 | 181 ft | 11 kts | 179° |
| 2026-04-21 22:46 | 16.74754 | -22.94703 | 182 ft | 13 kts | 180° |
| 2026-04-21 22:46 | 16.74650 | -22.94704 | 184 ft | 15 kts | 179° |
| 2026-04-21 22:46 | 16.74529 | -22.94702 | 185 ft | 19 kts | 180° |
| 2026-04-21 22:47 | 16.74386 | -22.94700 | 186 ft | 22 kts | 178° |
| 2026-04-21 22:47 | 16.74219 | -22.94698 | 188 ft | 25 kts | 180° |
| 2026-04-21 22:47 | 16.74030 | -22.94698 | 189 ft | 28 kts | 179° |
| 2026-04-21 22:47 | 16.73818 | -22.94696 | 191 ft | 31 kts | 179° |
| 2026-04-21 22:48 | 16.73621 | -22.94677 | 189 ft | 16 kts | 132° |
| 2026-04-21 22:48 | 16.73594 | -22.94618 | 186 ft | 6 kts | 136° |
| 2026-04-21 22:48 | 16.73561 | -22.94575 | 186 ft | 7 kts | 103° |
| 2026-04-21 22:48 | 16.73560 | -22.94515 | 185 ft | 8 kts | 90° |
| 2026-04-21 22:49 | 16.73560 | -22.94510 | 185 ft | 0 kts | 90° |
| 2026-04-21 22:49 | 16.73560 | -22.94507 | 185 ft | 0 kts | 90° |